sensor_id;sensor_type;location;lat;lon;timestamp;temperature;humidity
2907;DHT22;1463;51.070;16.998;2023-04-24T00:01:27;15.30;99.90
2907;DHT22;1463;51.070;16.998;2023-04-24T00:03:57;15.40;99.90
2907;DHT22;1463;51.070;16.998;2023-04-24T00:06:25;15.30;99.90
2907;DHT22;1463;51.070;16.998;2023-04-24T00:08:58;15.20;99.90
2907;DHT22;1463;51.070;16.998;2023-04-24T00:11:28;15.20;99.90
2907;DHT22;1463;51.070;16.998;2023-04-24T00:13:55;15.20;99.90
2907;DHT22;1463;51.070;16.998;2023-04-24T00:16:23;15.10;99.90
2907;DHT22;1463;51.070;16.998;2023-04-24T00:18:50;15.00;99.90
2907;DHT22;1463;51.070;16.998;2023-04-24T00:21:18;14.90;99.90
2907;DHT22;1463;51.070;16.998;2023-04-24T00:23:46;14.80;99.90
2907;DHT22;1463;51.070;16.998;2023-04-24T00:26:13;14.70;99.90
2907;DHT22;1463;51.070;16.998;2023-04-24T00:28:42;14.60;99.90
2907;DHT22;1463;51.070;16.998;2023-04-24T00:31:10;14.50;99.90
2907;DHT22;1463;51.070;16.998;2023-04-24T00:33:37;14.40;99.90
2907;DHT22;1463;51.070;16.998;2023-04-24T00:36:05;14.30;99.90
2907;DHT22;1463;51.070;16.998;2023-04-24T00:38:33;14.30;99.90
2907;DHT22;1463;51.070;16.998;2023-04-24T00:41:00;14.30;99.90
2907;DHT22;1463;51.070;16.998;2023-04-24T00:43:28;14.30;99.90
2907;DHT22;1463;51.070;16.998;2023-04-24T00:45:57;14.30;99.90
2907;DHT22;1463;51.070;16.998;2023-04-24T00:48:25;14.30;99.90
2907;DHT22;1463;51.070;16.998;2023-04-24T00:50:53;14.40;99.90
2907;DHT22;1463;51.070;16.998;2023-04-24T00:53:21;14.40;99.90
2907;DHT22;1463;51.070;16.998;2023-04-24T00:55:48;14.30;99.90
2907;DHT22;1463;51.070;16.998;2023-04-24T00:58:16;14.40;99.90
2907;DHT22;1463;51.070;16.998;2023-04-24T01:00:44;14.40;99.90
2907;DHT22;1463;51.070;16.998;2023-04-24T01:03:14;14.30;99.90
2907;DHT22;1463;51.070;16.998;2023-04-24T01:05:41;14.30;99.90
2907;DHT22;1463;51.070;16.998;2023-04-24T01:08:09;14.40;99.90
2907;DHT22;1463;51.070;16.998;2023-04-24T01:10:38;14.40;99.90
2907;DHT22;1463;51.070;16.998;2023-04-24T01:13:07;14.50;99.90
2907;DHT22;1463;51.070;16.998;2023-04-24T01:15:35;14.40;99.90
2907;DHT22;1463;51.070;16.998;2023-04-24T01:18:03;14.40;99.90
2907;DHT22;1463;51.070;16.998;2023-04-24T01:20:34;14.40;99.90
2907;DHT22;1463;51.070;16.998;2023-04-24T01:23:04;14.40;99.90
2907;DHT22;1463;51.070;16.998;2023-04-24T01:25:31;14.30;99.90
2907;DHT22;1463;51.070;16.998;2023-04-24T01:27:59;14.20;99.90
2907;DHT22;1463;51.070;16.998;2023-04-24T01:30:27;14.30;99.90
2907;DHT22;1463;51.070;16.998;2023-04-24T01:32:55;14.40;99.90
2907;DHT22;1463;51.070;16.998;2023-04-24T01:35:23;14.50;99.90
2907;DHT22;1463;51.070;16.998;2023-04-24T01:37:50;14.40;99.90
2907;DHT22;1463;51.070;16.998;2023-04-24T01:40:19;14.60;99.90
2907;DHT22;1463;51.070;16.998;2023-04-24T01:42:47;14.70;99.90
2907;DHT22;1463;51.070;16.998;2023-04-24T01:45:14;14.70;99.90
2907;DHT22;1463;51.070;16.998;2023-04-24T01:47:42;14.60;99.90
2907;DHT22;1463;51.070;16.998;2023-04-24T01:50:10;14.50;99.90
2907;DHT22;1463;51.070;16.998;2023-04-24T01:52:38;14.50;99.90
2907;DHT22;1463;51.070;16.998;2023-04-24T01:55:06;14.50;99.90
2907;DHT22;1463;51.070;16.998;2023-04-24T01:57:36;14.40;99.90
2907;DHT22;1463;51.070;16.998;2023-04-24T02:00:04;14.50;99.90
2907;DHT22;1463;51.070;16.998;2023-04-24T02:02:33;14.40;99.90
2907;DHT22;1463;51.070;16.998;2023-04-24T02:05:00;14.30;99.90
2907;DHT22;1463;51.070;16.998;2023-04-24T02:07:28;14.20;99.90
2907;DHT22;1463;51.070;16.998;2023-04-24T02:09:56;14.20;99.90
2907;DHT22;1463;51.070;16.998;2023-04-24T02:12:23;14.20;99.90
2907;DHT22;1463;51.070;16.998;2023-04-24T02:14:52;14.30;99.90
2907;DHT22;1463;51.070;16.998;2023-04-24T02:17:19;14.30;99.90
2907;DHT22;1463;51.070;16.998;2023-04-24T02:19:47;14.30;99.90
2907;DHT22;1463;51.070;16.998;2023-04-24T02:22:14;14.10;99.90
2907;DHT22;1463;51.070;16.998;2023-04-24T02:24:42;14.10;99.90
2907;DHT22;1463;51.070;16.998;2023-04-24T02:27:09;13.90;99.90
2907;DHT22;1463;51.070;16.998;2023-04-24T02:29:37;13.80;99.90
2907;DHT22;1463;51.070;16.998;2023-04-24T02:32:06;14.00;99.90
2907;DHT22;1463;51.070;16.998;2023-04-24T02:34:37;14.10;99.90
2907;DHT22;1463;51.070;16.998;2023-04-24T02:37:04;14.10;99.90
2907;DHT22;1463;51.070;16.998;2023-04-24T02:39:32;14.10;99.90
2907;DHT22;1463;51.070;16.998;2023-04-24T02:41:59;14.30;99.90
2907;DHT22;1463;51.070;16.998;2023-04-24T02:44:27;14.30;99.90
2907;DHT22;1463;51.070;16.998;2023-04-24T02:46:55;14.30;99.90
2907;DHT22;1463;51.070;16.998;2023-04-24T02:49:24;14.40;99.90
2907;DHT22;1463;51.070;16.998;2023-04-24T02:51:51;14.30;99.90
2907;DHT22;1463;51.070;16.998;2023-04-24T02:54:19;14.20;99.90
2907;DHT22;1463;51.070;16.998;2023-04-24T02:56:46;14.30;99.90
2907;DHT22;1463;51.070;16.998;2023-04-24T02:59:13;14.20;99.90
2907;DHT22;1463;51.070;16.998;2023-04-24T03:01:41;14.30;99.90
2907;DHT22;1463;51.070;16.998;2023-04-24T03:04:08;14.30;99.90
2907;DHT22;1463;51.070;16.998;2023-04-24T03:06:37;14.20;99.90
2907;DHT22;1463;51.070;16.998;2023-04-24T03:09:04;14.20;99.90
2907;DHT22;1463;51.070;16.998;2023-04-24T03:11:32;14.40;99.90
2907;DHT22;1463;51.070;16.998;2023-04-24T03:13:59;14.40;99.90
2907;DHT22;1463;51.070;16.998;2023-04-24T03:16:27;14.40;99.90
2907;DHT22;1463;51.070;16.998;2023-04-24T03:18:54;14.30;99.90
2907;DHT22;1463;51.070;16.998;2023-04-24T03:21:22;14.40;99.90
2907;DHT22;1463;51.070;16.998;2023-04-24T03:23:51;14.30;99.90
2907;DHT22;1463;51.070;16.998;2023-04-24T03:26:18;14.30;99.90
2907;DHT22;1463;51.070;16.998;2023-04-24T03:28:46;14.40;99.90
2907;DHT22;1463;51.070;16.998;2023-04-24T03:31:13;14.50;99.90
2907;DHT22;1463;51.070;16.998;2023-04-24T03:33:41;14.50;99.90
2907;DHT22;1463;51.070;16.998;2023-04-24T03:36:08;14.60;99.90
2907;DHT22;1463;51.070;16.998;2023-04-24T03:38:36;14.60;99.90
2907;DHT22;1463;51.070;16.998;2023-04-24T03:41:05;14.40;99.90
2907;DHT22;1463;51.070;16.998;2023-04-24T03:43:32;14.40;99.90
2907;DHT22;1463;51.070;16.998;2023-04-24T03:46:00;14.30;99.90
2907;DHT22;1463;51.070;16.998;2023-04-24T03:48:28;14.30;99.90
2907;DHT22;1463;51.070;16.998;2023-04-24T03:50:56;14.20;99.90
2907;DHT22;1463;51.070;16.998;2023-04-24T03:53:23;14.20;99.90
2907;DHT22;1463;51.070;16.998;2023-04-24T03:55:52;14.20;99.90
2907;DHT22;1463;51.070;16.998;2023-04-24T03:58:22;14.10;99.90
2907;DHT22;1463;51.070;16.998;2023-04-24T04:00:49;14.20;99.90
2907;DHT22;1463;51.070;16.998;2023-04-24T04:03:17;14.30;99.90
2907;DHT22;1463;51.070;16.998;2023-04-24T04:05:44;14.30;99.90
2907;DHT22;1463;51.070;16.998;2023-04-24T04:08:12;14.30;99.90
2907;DHT22;1463;51.070;16.998;2023-04-24T04:10:39;14.40;99.90
2907;DHT22;1463;51.070;16.998;2023-04-24T04:13:06;14.40;99.90
2907;DHT22;1463;51.070;16.998;2023-04-24T04:15:35;14.40;99.90
2907;DHT22;1463;51.070;16.998;2023-04-24T04:18:03;14.40;99.90
2907;DHT22;1463;51.070;16.998;2023-04-24T04:20:31;14.30;99.90
2907;DHT22;1463;51.070;16.998;2023-04-24T04:22:58;14.30;99.90
2907;DHT22;1463;51.070;16.998;2023-04-24T04:25:25;14.30;99.90
2907;DHT22;1463;51.070;16.998;2023-04-24T04:27:53;14.40;99.90
2907;DHT22;1463;51.070;16.998;2023-04-24T04:30:21;14.50;99.90
2907;DHT22;1463;51.070;16.998;2023-04-24T04:32:50;14.60;99.90
2907;DHT22;1463;51.070;16.998;2023-04-24T04:35:18;14.60;99.90
2907;DHT22;1463;51.070;16.998;2023-04-24T04:37:45;14.70;99.90
2907;DHT22;1463;51.070;16.998;2023-04-24T04:40:12;14.70;99.90
2907;DHT22;1463;51.070;16.998;2023-04-24T04:42:40;14.60;99.90
2907;DHT22;1463;51.070;16.998;2023-04-24T04:45:09;14.60;99.90
2907;DHT22;1463;51.070;16.998;2023-04-24T04:47:37;14.50;99.90
2907;DHT22;1463;51.070;16.998;2023-04-24T04:50:07;14.40;99.90
2907;DHT22;1463;51.070;16.998;2023-04-24T04:52:35;14.30;99.90
2907;DHT22;1463;51.070;16.998;2023-04-24T04:55:02;14.30;99.90
2907;DHT22;1463;51.070;16.998;2023-04-24T04:57:31;14.40;99.90
2907;DHT22;1463;51.070;16.998;2023-04-24T04:59:58;14.30;99.90
2907;DHT22;1463;51.070;16.998;2023-04-24T05:02:26;14.20;99.90
2907;DHT22;1463;51.070;16.998;2023-04-24T05:04:53;14.10;99.90
2907;DHT22;1463;51.070;16.998;2023-04-24T05:07:22;14.00;99.90
2907;DHT22;1463;51.070;16.998;2023-04-24T05:09:49;14.10;99.90
2907;DHT22;1463;51.070;16.998;2023-04-24T05:12:18;14.20;99.90
2907;DHT22;1463;51.070;16.998;2023-04-24T05:14:45;14.40;99.90
2907;DHT22;1463;51.070;16.998;2023-04-24T05:17:12;14.40;99.90
2907;DHT22;1463;51.070;16.998;2023-04-24T05:19:40;14.50;99.90
2907;DHT22;1463;51.070;16.998;2023-04-24T05:22:08;14.60;99.90
2907;DHT22;1463;51.070;16.998;2023-04-24T05:24:37;14.70;99.90
2907;DHT22;1463;51.070;16.998;2023-04-24T05:27:05;14.80;99.90
2907;DHT22;1463;51.070;16.998;2023-04-24T05:29:32;14.80;99.90
2907;DHT22;1463;51.070;16.998;2023-04-24T05:32:00;14.80;99.90
2907;DHT22;1463;51.070;16.998;2023-04-24T05:34:28;15.00;99.90
2907;DHT22;1463;51.070;16.998;2023-04-24T05:36:55;15.10;99.90
2907;DHT22;1463;51.070;16.998;2023-04-24T05:39:23;15.10;99.90
2907;DHT22;1463;51.070;16.998;2023-04-24T05:41:52;15.20;99.90
2907;DHT22;1463;51.070;16.998;2023-04-24T05:44:19;15.20;99.90
2907;DHT22;1463;51.070;16.998;2023-04-24T05:46:47;15.30;99.90
2907;DHT22;1463;51.070;16.998;2023-04-24T05:49:14;15.30;99.90
2907;DHT22;1463;51.070;16.998;2023-04-24T05:51:41;15.40;99.90
2907;DHT22;1463;51.070;16.998;2023-04-24T05:54:09;15.40;99.90
2907;DHT22;1463;51.070;16.998;2023-04-24T05:56:38;15.50;99.90
2907;DHT22;1463;51.070;16.998;2023-04-24T05:59:07;15.50;99.90
2907;DHT22;1463;51.070;16.998;2023-04-24T06:01:34;15.50;99.90
2907;DHT22;1463;51.070;16.998;2023-04-24T06:04:03;15.50;99.90
2907;DHT22;1463;51.070;16.998;2023-04-24T06:06:30;15.70;99.90
2907;DHT22;1463;51.070;16.998;2023-04-24T06:08:58;15.70;99.90
2907;DHT22;1463;51.070;16.998;2023-04-24T06:11:25;15.80;99.90
2907;DHT22;1463;51.070;16.998;2023-04-24T06:13:53;15.80;99.90
2907;DHT22;1463;51.070;16.998;2023-04-24T06:16:22;15.80;99.90
2907;DHT22;1463;51.070;16.998;2023-04-24T06:18:49;15.90;99.90
2907;DHT22;1463;51.070;16.998;2023-04-24T06:21:16;15.90;99.90
2907;DHT22;1463;51.070;16.998;2023-04-24T06:23:44;16.00;99.90
2907;DHT22;1463;51.070;16.998;2023-04-24T06:26:12;16.00;99.90
2907;DHT22;1463;51.070;16.998;2023-04-24T06:28:40;16.10;99.90
2907;DHT22;1463;51.070;16.998;2023-04-24T06:31:07;16.10;99.90
2907;DHT22;1463;51.070;16.998;2023-04-24T06:33:36;16.10;99.90
2907;DHT22;1463;51.070;16.998;2023-04-24T06:36:04;16.10;99.90
2907;DHT22;1463;51.070;16.998;2023-04-24T06:38:32;16.10;99.90
2907;DHT22;1463;51.070;16.998;2023-04-24T06:41:00;16.20;99.90
2907;DHT22;1463;51.070;16.998;2023-04-24T06:43:27;16.20;99.90
2907;DHT22;1463;51.070;16.998;2023-04-24T06:45:54;16.20;99.90
2907;DHT22;1463;51.070;16.998;2023-04-24T06:48:22;16.10;99.90
2907;DHT22;1463;51.070;16.998;2023-04-24T06:50:51;16.20;99.90
2907;DHT22;1463;51.070;16.998;2023-04-24T06:53:18;16.20;99.90
2907;DHT22;1463;51.070;16.998;2023-04-24T06:55:46;16.20;99.90
2907;DHT22;1463;51.070;16.998;2023-04-24T06:58:13;16.20;99.90
2907;DHT22;1463;51.070;16.998;2023-04-24T07:00:40;16.30;99.90
2907;DHT22;1463;51.070;16.998;2023-04-24T07:03:08;16.20;99.90
2907;DHT22;1463;51.070;16.998;2023-04-24T07:05:35;16.10;99.90
2907;DHT22;1463;51.070;16.998;2023-04-24T07:08:05;16.20;99.90
2907;DHT22;1463;51.070;16.998;2023-04-24T07:10:34;16.30;99.90
2907;DHT22;1463;51.070;16.998;2023-04-24T07:13:02;16.40;99.90
2907;DHT22;1463;51.070;16.998;2023-04-24T07:15:29;16.30;99.90
2907;DHT22;1463;51.070;16.998;2023-04-24T07:17:58;16.50;99.90
2907;DHT22;1463;51.070;16.998;2023-04-24T07:20:25;16.60;99.90
2907;DHT22;1463;51.070;16.998;2023-04-24T07:22:53;16.60;99.90
2907;DHT22;1463;51.070;16.998;2023-04-24T07:25:22;16.60;99.90
2907;DHT22;1463;51.070;16.998;2023-04-24T07:27:49;16.60;99.90
2907;DHT22;1463;51.070;16.998;2023-04-24T07:30:16;16.60;99.90
2907;DHT22;1463;51.070;16.998;2023-04-24T07:32:44;16.50;99.90
2907;DHT22;1463;51.070;16.998;2023-04-24T07:35:11;16.60;99.90
2907;DHT22;1463;51.070;16.998;2023-04-24T07:37:39;16.60;99.90
2907;DHT22;1463;51.070;16.998;2023-04-24T07:40:11;16.70;99.90
2907;DHT22;1463;51.070;16.998;2023-04-24T07:42:40;16.70;99.90
2907;DHT22;1463;51.070;16.998;2023-04-24T07:45:09;16.70;99.90
2907;DHT22;1463;51.070;16.998;2023-04-24T07:47:37;16.80;99.90
2907;DHT22;1463;51.070;16.998;2023-04-24T07:50:06;17.00;99.90
2907;DHT22;1463;51.070;16.998;2023-04-24T07:52:33;17.20;99.90
2907;DHT22;1463;51.070;16.998;2023-04-24T07:55:01;17.30;99.90
2907;DHT22;1463;51.070;16.998;2023-04-24T07:57:28;17.40;99.90
2907;DHT22;1463;51.070;16.998;2023-04-24T07:59:57;17.30;99.90
2907;DHT22;1463;51.070;16.998;2023-04-24T08:02:25;17.30;99.90
2907;DHT22;1463;51.070;16.998;2023-04-24T08:04:52;17.30;99.90
2907;DHT22;1463;51.070;16.998;2023-04-24T08:07:21;17.30;99.90
2907;DHT22;1463;51.070;16.998;2023-04-24T08:09:48;17.20;99.90
2907;DHT22;1463;51.070;16.998;2023-04-24T08:12:15;17.10;99.90
2907;DHT22;1463;51.070;16.998;2023-04-24T08:14:43;17.10;99.90
2907;DHT22;1463;51.070;16.998;2023-04-24T08:17:12;17.10;99.90
2907;DHT22;1463;51.070;16.998;2023-04-24T08:19:40;17.00;99.90
2907;DHT22;1463;51.070;16.998;2023-04-24T08:22:13;17.00;99.90
2907;DHT22;1463;51.070;16.998;2023-04-24T08:24:40;17.00;99.90
2907;DHT22;1463;51.070;16.998;2023-04-24T08:27:08;17.10;99.90
2907;DHT22;1463;51.070;16.998;2023-04-24T08:29:36;17.10;99.90
2907;DHT22;1463;51.070;16.998;2023-04-24T08:32:03;17.00;99.90
2907;DHT22;1463;51.070;16.998;2023-04-24T08:34:32;17.00;99.90
2907;DHT22;1463;51.070;16.998;2023-04-24T08:37:00;16.90;99.90
2907;DHT22;1463;51.070;16.998;2023-04-24T08:39:27;16.90;99.90
2907;DHT22;1463;51.070;16.998;2023-04-24T08:41:55;17.00;99.90
2907;DHT22;1463;51.070;16.998;2023-04-24T08:44:23;17.00;99.90
2907;DHT22;1463;51.070;16.998;2023-04-24T08:46:51;17.10;99.90
2907;DHT22;1463;51.070;16.998;2023-04-24T08:49:19;17.10;99.90
2907;DHT22;1463;51.070;16.998;2023-04-24T08:51:49;17.20;99.90
2907;DHT22;1463;51.070;16.998;2023-04-24T08:54:18;17.30;99.90
2907;DHT22;1463;51.070;16.998;2023-04-24T08:56:47;17.30;99.90
2907;DHT22;1463;51.070;16.998;2023-04-24T08:59:16;17.40;99.90
2907;DHT22;1463;51.070;16.998;2023-04-24T09:01:45;17.40;99.90
2907;DHT22;1463;51.070;16.998;2023-04-24T09:04:14;17.50;99.90
2907;DHT22;1463;51.070;16.998;2023-04-24T09:06:43;17.60;99.90
2907;DHT22;1463;51.070;16.998;2023-04-24T09:09:13;17.60;99.90
2907;DHT22;1463;51.070;16.998;2023-04-24T09:11:41;17.70;99.90
2907;DHT22;1463;51.070;16.998;2023-04-24T09:14:09;18.00;99.90
2907;DHT22;1463;51.070;16.998;2023-04-24T09:16:37;18.30;99.90
2907;DHT22;1463;51.070;16.998;2023-04-24T09:19:05;18.60;99.90
2907;DHT22;1463;51.070;16.998;2023-04-24T09:21:33;18.70;99.90
2907;DHT22;1463;51.070;16.998;2023-04-24T09:24:03;18.90;99.90
2907;DHT22;1463;51.070;16.998;2023-04-24T09:26:34;18.90;99.90
2907;DHT22;1463;51.070;16.998;2023-04-24T09:29:03;19.00;99.90
2907;DHT22;1463;51.070;16.998;2023-04-24T09:31:31;19.00;99.90
2907;DHT22;1463;51.070;16.998;2023-04-24T09:33:59;18.90;99.90
2907;DHT22;1463;51.070;16.998;2023-04-24T09:36:30;18.80;99.90
2907;DHT22;1463;51.070;16.998;2023-04-24T09:38:59;18.70;99.90
2907;DHT22;1463;51.070;16.998;2023-04-24T09:41:28;18.50;99.90
2907;DHT22;1463;51.070;16.998;2023-04-24T09:43:57;18.40;99.90
2907;DHT22;1463;51.070;16.998;2023-04-24T09:46:32;18.20;99.90
2907;DHT22;1463;51.070;16.998;2023-04-24T09:49:08;18.10;99.90
2907;DHT22;1463;51.070;16.998;2023-04-24T09:51:37;18.10;99.90
2907;DHT22;1463;51.070;16.998;2023-04-24T09:54:13;18.00;99.90
2907;DHT22;1463;51.070;16.998;2023-04-24T09:56:43;18.00;99.90
2907;DHT22;1463;51.070;16.998;2023-04-24T09:59:13;18.00;99.90
2907;DHT22;1463;51.070;16.998;2023-04-24T10:01:41;18.00;99.90
2907;DHT22;1463;51.070;16.998;2023-04-24T10:04:18;18.00;99.90
2907;DHT22;1463;51.070;16.998;2023-04-24T10:06:56;17.90;99.90
2907;DHT22;1463;51.070;16.998;2023-04-24T10:09:33;17.90;99.90
2907;DHT22;1463;51.070;16.998;2023-04-24T10:12:01;17.90;99.90
2907;DHT22;1463;51.070;16.998;2023-04-24T10:14:31;17.90;99.90
2907;DHT22;1463;51.070;16.998;2023-04-24T10:16:58;17.90;99.90
2907;DHT22;1463;51.070;16.998;2023-04-24T10:19:26;17.80;99.90
2907;DHT22;1463;51.070;16.998;2023-04-24T10:21:53;17.90;99.90
2907;DHT22;1463;51.070;16.998;2023-04-24T10:24:22;17.80;99.90
2907;DHT22;1463;51.070;16.998;2023-04-24T10:26:49;17.80;99.90
2907;DHT22;1463;51.070;16.998;2023-04-24T10:29:24;17.80;99.90
2907;DHT22;1463;51.070;16.998;2023-04-24T10:31:55;17.90;99.90
2907;DHT22;1463;51.070;16.998;2023-04-24T10:34:23;17.90;99.90
2907;DHT22;1463;51.070;16.998;2023-04-24T10:36:52;18.10;99.90
2907;DHT22;1463;51.070;16.998;2023-04-24T10:39:20;18.30;99.90
2907;DHT22;1463;51.070;16.998;2023-04-24T10:41:49;18.30;99.90
2907;DHT22;1463;51.070;16.998;2023-04-24T10:44:16;18.30;99.90
2907;DHT22;1463;51.070;16.998;2023-04-24T10:46:45;18.40;99.90
2907;DHT22;1463;51.070;16.998;2023-04-24T10:49:15;18.40;99.90
2907;DHT22;1463;51.070;16.998;2023-04-24T10:51:50;18.40;99.90
2907;DHT22;1463;51.070;16.998;2023-04-24T10:54:23;18.30;99.90
2907;DHT22;1463;51.070;16.998;2023-04-24T10:56:51;18.10;99.90
2907;DHT22;1463;51.070;16.998;2023-04-24T10:59:25;18.10;99.90
2907;DHT22;1463;51.070;16.998;2023-04-24T11:01:53;18.00;99.90
2907;DHT22;1463;51.070;16.998;2023-04-24T11:04:33;18.10;99.90
2907;DHT22;1463;51.070;16.998;2023-04-24T11:07:02;17.80;99.90
2907;DHT22;1463;51.070;16.998;2023-04-24T11:09:31;17.70;99.90
2907;DHT22;1463;51.070;16.998;2023-04-24T11:12:06;17.70;99.90
2907;DHT22;1463;51.070;16.998;2023-04-24T11:15:00;17.60;99.90
2907;DHT22;1463;51.070;16.998;2023-04-24T11:17:29;17.70;99.90
2907;DHT22;1463;51.070;16.998;2023-04-24T11:20:03;17.60;99.90
2907;DHT22;1463;51.070;16.998;2023-04-24T11:22:34;17.70;99.90
2907;DHT22;1463;51.070;16.998;2023-04-24T11:25:02;17.80;99.90
2907;DHT22;1463;51.070;16.998;2023-04-24T11:27:32;17.80;99.90
2907;DHT22;1463;51.070;16.998;2023-04-24T11:30:07;18.00;99.90
2907;DHT22;1463;51.070;16.998;2023-04-24T11:32:36;18.20;99.90
2907;DHT22;1463;51.070;16.998;2023-04-24T11:35:07;18.40;99.90
2907;DHT22;1463;51.070;16.998;2023-04-24T11:37:37;18.60;99.90
2907;DHT22;1463;51.070;16.998;2023-04-24T11:40:07;18.70;99.90
2907;DHT22;1463;51.070;16.998;2023-04-24T11:42:36;18.80;99.90
2907;DHT22;1463;51.070;16.998;2023-04-24T11:45:08;19.10;99.90
2907;DHT22;1463;51.070;16.998;2023-04-24T11:47:36;19.20;99.90
2907;DHT22;1463;51.070;16.998;2023-04-24T11:50:07;19.10;99.90
2907;DHT22;1463;51.070;16.998;2023-04-24T11:52:38;19.10;99.90
2907;DHT22;1463;51.070;16.998;2023-04-24T11:55:07;19.00;99.90
2907;DHT22;1463;51.070;16.998;2023-04-24T11:57:35;19.00;99.90
2907;DHT22;1463;51.070;16.998;2023-04-24T12:00:04;18.80;99.90
2907;DHT22;1463;51.070;16.998;2023-04-24T12:02:32;18.70;99.90
2907;DHT22;1463;51.070;16.998;2023-04-24T12:04:59;18.70;99.90
2907;DHT22;1463;51.070;16.998;2023-04-24T12:07:28;18.50;99.90
2907;DHT22;1463;51.070;16.998;2023-04-24T12:09:57;18.40;99.90
2907;DHT22;1463;51.070;16.998;2023-04-24T12:12:27;18.30;99.90
2907;DHT22;1463;51.070;16.998;2023-04-24T12:14:56;18.30;99.90
2907;DHT22;1463;51.070;16.998;2023-04-24T12:17:25;18.20;99.90
2907;DHT22;1463;51.070;16.998;2023-04-24T12:19:57;18.20;99.90
2907;DHT22;1463;51.070;16.998;2023-04-24T12:22:27;18.10;99.90
2907;DHT22;1463;51.070;16.998;2023-04-24T12:25:00;18.00;99.90
2907;DHT22;1463;51.070;16.998;2023-04-24T12:27:31;18.00;99.90
2907;DHT22;1463;51.070;16.998;2023-04-24T12:30:02;17.90;99.90
2907;DHT22;1463;51.070;16.998;2023-04-24T12:32:30;17.90;99.90
2907;DHT22;1463;51.070;16.998;2023-04-24T12:34:58;17.90;99.90
2907;DHT22;1463;51.070;16.998;2023-04-24T12:37:32;17.90;99.90
2907;DHT22;1463;51.070;16.998;2023-04-24T12:40:02;17.90;99.90
2907;DHT22;1463;51.070;16.998;2023-04-24T12:42:32;17.80;99.90
2907;DHT22;1463;51.070;16.998;2023-04-24T12:45:01;17.80;99.90
2907;DHT22;1463;51.070;16.998;2023-04-24T12:47:29;17.80;99.90
2907;DHT22;1463;51.070;16.998;2023-04-24T12:49:57;17.70;99.90
2907;DHT22;1463;51.070;16.998;2023-04-24T12:52:25;17.60;99.90
2907;DHT22;1463;51.070;16.998;2023-04-24T12:54:57;17.60;99.90
2907;DHT22;1463;51.070;16.998;2023-04-24T12:57:25;17.70;99.90
2907;DHT22;1463;51.070;16.998;2023-04-24T12:59:54;17.70;99.90
2907;DHT22;1463;51.070;16.998;2023-04-24T13:02:23;17.70;99.90
2907;DHT22;1463;51.070;16.998;2023-04-24T13:04:52;17.60;99.90
2907;DHT22;1463;51.070;16.998;2023-04-24T13:07:20;17.40;99.90
2907;DHT22;1463;51.070;16.998;2023-04-24T13:09:48;17.30;99.90
2907;DHT22;1463;51.070;16.998;2023-04-24T13:12:19;17.20;99.90
2907;DHT22;1463;51.070;16.998;2023-04-24T13:14:46;17.10;99.90
2907;DHT22;1463;51.070;16.998;2023-04-24T13:17:14;17.00;99.90
2907;DHT22;1463;51.070;16.998;2023-04-24T13:19:43;16.90;99.90
2907;DHT22;1463;51.070;16.998;2023-04-24T13:22:12;16.70;99.90
2907;DHT22;1463;51.070;16.998;2023-04-24T13:24:39;16.70;99.90
2907;DHT22;1463;51.070;16.998;2023-04-24T13:27:08;16.60;99.90
2907;DHT22;1463;51.070;16.998;2023-04-24T13:29:37;16.50;99.90
2907;DHT22;1463;51.070;16.998;2023-04-24T13:32:05;16.30;99.90
2907;DHT22;1463;51.070;16.998;2023-04-24T13:34:33;16.00;99.90
2907;DHT22;1463;51.070;16.998;2023-04-24T13:37:01;15.90;99.90
2907;DHT22;1463;51.070;16.998;2023-04-24T13:39:29;15.90;99.90
2907;DHT22;1463;51.070;16.998;2023-04-24T13:41:57;16.00;99.90
2907;DHT22;1463;51.070;16.998;2023-04-24T13:44:25;16.10;99.90
2907;DHT22;1463;51.070;16.998;2023-04-24T13:46:54;16.00;99.90
2907;DHT22;1463;51.070;16.998;2023-04-24T13:49:23;15.80;99.90
2907;DHT22;1463;51.070;16.998;2023-04-24T13:51:52;15.80;99.90
2907;DHT22;1463;51.070;16.998;2023-04-24T13:54:20;15.80;99.90
2907;DHT22;1463;51.070;16.998;2023-04-24T13:56:49;15.70;99.90
2907;DHT22;1463;51.070;16.998;2023-04-24T13:59:16;15.60;99.90
2907;DHT22;1463;51.070;16.998;2023-04-24T14:01:44;15.60;99.90
2907;DHT22;1463;51.070;16.998;2023-04-24T14:04:13;15.70;99.90
2907;DHT22;1463;51.070;16.998;2023-04-24T14:06:40;15.80;99.90
2907;DHT22;1463;51.070;16.998;2023-04-24T14:09:08;15.80;99.90
2907;DHT22;1463;51.070;16.998;2023-04-24T14:11:35;15.80;99.90
2907;DHT22;1463;51.070;16.998;2023-04-24T14:14:03;15.70;99.90
2907;DHT22;1463;51.070;16.998;2023-04-24T14:16:31;15.70;99.90
2907;DHT22;1463;51.070;16.998;2023-04-24T14:18:58;15.60;99.90
2907;DHT22;1463;51.070;16.998;2023-04-24T14:21:28;15.70;99.90
2907;DHT22;1463;51.070;16.998;2023-04-24T14:23:59;15.60;99.90
2907;DHT22;1463;51.070;16.998;2023-04-24T14:26:27;15.50;99.90
2907;DHT22;1463;51.070;16.998;2023-04-24T14:28:54;15.40;99.90
2907;DHT22;1463;51.070;16.998;2023-04-24T14:31:22;15.50;99.90
2907;DHT22;1463;51.070;16.998;2023-04-24T14:33:49;15.30;99.90
2907;DHT22;1463;51.070;16.998;2023-04-24T14:36:17;15.40;99.90
2907;DHT22;1463;51.070;16.998;2023-04-24T14:38:45;15.40;99.90
2907;DHT22;1463;51.070;16.998;2023-04-24T14:41:13;15.40;99.90
2907;DHT22;1463;51.070;16.998;2023-04-24T14:43:40;15.30;99.90
2907;DHT22;1463;51.070;16.998;2023-04-24T14:46:08;15.30;99.90
2907;DHT22;1463;51.070;16.998;2023-04-24T14:48:35;15.30;99.90
2907;DHT22;1463;51.070;16.998;2023-04-24T14:51:03;15.20;99.90
2907;DHT22;1463;51.070;16.998;2023-04-24T14:53:31;15.20;99.90
2907;DHT22;1463;51.070;16.998;2023-04-24T14:56:00;15.20;99.90
2907;DHT22;1463;51.070;16.998;2023-04-24T14:58:27;15.20;99.90
2907;DHT22;1463;51.070;16.998;2023-04-24T15:00:55;15.20;99.90
2907;DHT22;1463;51.070;16.998;2023-04-24T15:03:22;15.10;99.90
2907;DHT22;1463;51.070;16.998;2023-04-24T15:05:50;15.00;99.90
2907;DHT22;1463;51.070;16.998;2023-04-24T15:08:17;14.90;99.90
2907;DHT22;1463;51.070;16.998;2023-04-24T15:10:46;14.80;99.90
2907;DHT22;1463;51.070;16.998;2023-04-24T15:13:15;14.70;99.90
2907;DHT22;1463;51.070;16.998;2023-04-24T15:15:43;14.80;99.90
2907;DHT22;1463;51.070;16.998;2023-04-24T15:18:10;14.80;99.90
2907;DHT22;1463;51.070;16.998;2023-04-24T15:20:38;14.80;99.90
2907;DHT22;1463;51.070;16.998;2023-04-24T15:23:07;14.90;99.90
2907;DHT22;1463;51.070;16.998;2023-04-24T15:25:35;14.90;99.90
2907;DHT22;1463;51.070;16.998;2023-04-24T15:28:02;14.90;99.90
2907;DHT22;1463;51.070;16.998;2023-04-24T15:30:32;15.00;99.90
2907;DHT22;1463;51.070;16.998;2023-04-24T15:33:00;15.00;99.90
2907;DHT22;1463;51.070;16.998;2023-04-24T15:35:28;15.00;99.90
2907;DHT22;1463;51.070;16.998;2023-04-24T15:37:55;14.90;99.90
2907;DHT22;1463;51.070;16.998;2023-04-24T15:40:23;14.90;99.90
2907;DHT22;1463;51.070;16.998;2023-04-24T15:42:50;14.90;99.90
2907;DHT22;1463;51.070;16.998;2023-04-24T15:45:18;14.90;99.90
2907;DHT22;1463;51.070;16.998;2023-04-24T15:47:47;15.00;99.90
2907;DHT22;1463;51.070;16.998;2023-04-24T15:50:15;15.00;99.90
2907;DHT22;1463;51.070;16.998;2023-04-24T15:52:44;15.00;99.90